createdAt,value
2018-09-13T00:00:38.300Z,101945.75
2018-09-13T00:03:06.931Z,101944.91
2018-09-13T00:05:35.641Z,101943.23
2018-09-13T00:08:04.366Z,101943.39
2018-09-13T00:10:33.079Z,101943.91
2018-09-13T00:13:01.694Z,101940.59
2018-09-13T00:15:30.330Z,101936.15
2018-09-13T00:17:58.982Z,101931.98
2018-09-13T00:20:27.682Z,101942.98
2018-09-13T00:22:56.322Z,101933.67
2018-09-13T00:25:24.996Z,101935.55
2018-09-13T00:27:53.644Z,101932.31
2018-09-13T00:30:22.284Z,101938.27
2018-09-13T00:32:50.909Z,101937.95
2018-09-13T00:35:19.656Z,101940.19
2018-09-13T00:37:48.340Z,101939.78
2018-09-13T00:40:17.001Z,101940.05
2018-09-13T00:42:45.777Z,101938.61
2018-09-13T00:45:14.378Z,101932.84
2018-09-13T00:47:44.528Z,101932.07
2018-09-13T00:50:14.437Z,101932.80
2018-09-13T00:52:43.040Z,101933.14
2018-09-13T00:55:11.702Z,101926.60
2018-09-13T00:57:40.333Z,101924.86
2018-09-13T01:00:09.132Z,101918.07
2018-09-13T01:02:38.780Z,101919.25
2018-09-13T01:05:07.423Z,101918.47
2018-09-13T01:07:36.106Z,101921.27
2018-09-13T01:10:04.966Z,101928.08
2018-09-13T01:12:33.694Z,101926.98
2018-09-13T01:15:02.529Z,101929.64
2018-09-13T01:17:31.147Z,101917.53
2018-09-13T01:20:00.016Z,101916.36
2018-09-13T01:22:28.685Z,101917.11
2018-09-13T01:24:57.612Z,101919.52
2018-09-13T01:27:27.944Z,101907.64
2018-09-13T01:29:57.414Z,101907.66
2018-09-13T01:32:26.085Z,101901.86
2018-09-13T01:34:54.842Z,101903.94
2018-09-13T01:37:23.466Z,101901.36
2018-09-13T01:39:52.623Z,101906.14
2018-09-13T01:42:21.262Z,101906.27
2018-09-13T01:44:50.088Z,101903.43
2018-09-13T01:47:18.747Z,101896.22
2018-09-13T01:49:47.347Z,101898.41
2018-09-13T01:52:16.194Z,101894.34
2018-09-13T01:54:45.080Z,101894.66
2018-09-13T01:57:14.067Z,101890.08
2018-09-13T01:59:42.875Z,101894.09
2018-09-13T02:02:11.538Z,101888.67
2018-09-13T02:04:40.208Z,101891.59
2018-09-13T02:07:08.892Z,101889.41
2018-09-13T02:09:37.482Z,101885.51
2018-09-13T02:12:06.553Z,101896.69
2018-09-13T02:14:35.252Z,101890.83
2018-09-13T02:17:04.097Z,101891.34
2018-09-13T02:19:32.729Z,101891.00
2018-09-13T02:22:01.361Z,101886.94
2018-09-13T02:24:30.362Z,101883.03
2018-09-13T02:26:59.307Z,101892.17
2018-09-13T02:29:28.145Z,101891.73
2018-09-13T02:31:56.753Z,101884.95
2018-09-13T02:34:25.479Z,101880.64
2018-09-13T02:36:54.106Z,101874.08
2018-09-13T02:39:22.793Z,101874.26
2018-09-13T02:41:51.641Z,101876.37
2018-09-13T02:44:20.909Z,101876.48
2018-09-13T02:46:50.051Z,101873.53
2018-09-13T02:49:18.811Z,101876.05
2018-09-13T02:51:47.595Z,101869.69
2018-09-13T02:54:16.292Z,101875.61
2018-09-13T02:56:44.891Z,101875.09
2018-09-13T02:59:13.611Z,101870.61
2018-09-13T03:01:42.205Z,101871.48
2018-09-13T03:04:10.785Z,101866.36
2018-09-13T03:06:39.533Z,101879.53
2018-09-13T03:09:11.736Z,101880.50
2018-09-13T03:11:40.849Z,101880.64
2018-09-13T03:14:09.988Z,101873.78
2018-09-13T03:16:39.124Z,101874.82
2018-09-13T03:19:07.980Z,101877.53
2018-09-13T03:21:38.765Z,101881.42
2018-09-13T03:24:07.406Z,101883.07
2018-09-13T03:26:36.286Z,101883.95
2018-09-13T03:29:05.204Z,101885.73
2018-09-13T03:31:33.825Z,101883.63
2018-09-13T03:34:02.620Z,101883.02
2018-09-13T03:36:31.230Z,101877.09
2018-09-13T03:38:59.876Z,101877.39
2018-09-13T03:41:28.568Z,101868.97
2018-09-13T03:43:57.151Z,101862.61
2018-09-13T03:46:25.780Z,101868.84
2018-09-13T03:48:54.371Z,101866.88
2018-09-13T03:51:23.011Z,101879.73
2018-09-13T03:53:51.623Z,101876.50
2018-09-13T03:56:20.284Z,101878.56
2018-09-13T03:58:49.010Z,101876.82
2018-09-13T04:01:17.673Z,101885.05
2018-09-13T04:03:46.660Z,101884.53
2018-09-13T04:06:15.343Z,101882.35
2018-09-13T04:08:44.054Z,101880.45
2018-09-13T04:11:12.683Z,101885.16
2018-09-13T04:13:42.254Z,101879.52
2018-09-13T04:16:10.839Z,101883.48
2018-09-13T04:18:39.534Z,101884.73
2018-09-13T04:21:08.107Z,101887.94
2018-09-13T04:26:16.437Z,101880.45
2018-09-13T04:28:44.956Z,101886.98
2018-09-13T04:31:13.469Z,101882.39
2018-09-13T04:33:41.992Z,101888.63
2018-09-13T04:36:10.639Z,101883.37
2018-09-13T04:38:39.138Z,101889.73
2018-09-13T04:41:08.148Z,101887.32
2018-09-13T04:43:36.718Z,101885.53
2018-09-13T04:46:05.426Z,101879.72
2018-09-13T04:48:34.521Z,101882.61
2018-09-13T04:51:03.365Z,101884.88
2018-09-13T04:53:32.814Z,101886.12
2018-09-13T04:56:01.571Z,101887.84
2018-09-13T04:58:30.257Z,101882.95
2018-09-13T05:00:58.864Z,101882.62
2018-09-13T05:03:27.510Z,101882.62
2018-09-13T05:05:56.074Z,101877.86
2018-09-13T05:08:24.673Z,101878.56
2018-09-13T05:10:53.342Z,101874.06
2018-09-13T05:13:21.990Z,101878.89
2018-09-13T05:15:50.519Z,101877.94
2018-09-13T05:18:19.091Z,101876.95
2018-09-13T05:20:47.648Z,101881.34
2018-09-13T05:23:16.153Z,101881.16
2018-09-13T05:25:44.885Z,101883.20
2018-09-13T05:28:13.703Z,101878.56
2018-09-13T05:30:42.348Z,101879.41
2018-09-13T05:33:10.924Z,101887.52
2018-09-13T05:35:39.404Z,101885.98
2018-09-13T05:38:07.885Z,101881.92
2018-09-13T05:40:36.429Z,101886.28
2018-09-13T05:43:04.995Z,101892.20
2018-09-13T05:45:33.589Z,101891.33
2018-09-13T05:48:02.393Z,101889.05
2018-09-13T05:50:30.897Z,101886.45
2018-09-13T05:52:59.417Z,101891.03
2018-09-13T05:55:27.885Z,101892.20
2018-09-13T05:57:56.435Z,101895.15
2018-09-13T06:00:25.253Z,101901.52
2018-09-13T06:02:53.787Z,101906.30
2018-09-13T06:05:22.269Z,101904.25
2018-09-13T06:07:50.997Z,101900.83
2018-09-13T06:10:19.577Z,101904.59
2018-09-13T06:12:48.490Z,101904.42
2018-09-13T06:15:17.188Z,101901.51
2018-09-13T06:17:45.894Z,101899.33
2018-09-13T06:20:14.638Z,101901.30
2018-09-13T06:22:43.276Z,101900.99
2018-09-13T06:25:12.605Z,101892.77
2018-09-13T06:27:41.102Z,101896.20
2018-09-13T06:30:09.887Z,101887.23
2018-09-13T06:32:38.395Z,101886.83
2018-09-13T06:35:07.023Z,101894.02
2018-09-13T06:37:35.595Z,101893.09
2018-09-13T06:40:04.430Z,101894.87
2018-09-13T06:42:33.391Z,101890.77
2018-09-13T06:45:01.902Z,101897.75
2018-09-13T06:47:30.426Z,101891.09
2018-09-13T06:49:58.917Z,101888.89
2018-09-13T06:52:27.508Z,101894.31
2018-09-13T06:54:56.048Z,101896.27
2018-09-13T06:57:24.789Z,101900.11
2018-09-13T06:59:53.370Z,101898.06
2018-09-13T07:02:21.948Z,101897.74
2018-09-13T07:04:50.500Z,101900.10
2018-09-13T07:07:19.350Z,101895.58
2018-09-13T07:09:47.852Z,101892.52
2018-09-13T07:12:16.525Z,101896.31
2018-09-13T07:14:45.054Z,101889.74
2018-09-13T07:17:13.611Z,101886.07
2018-09-13T07:19:42.189Z,101889.56
2018-09-13T07:22:10.883Z,101892.48
2018-09-13T07:24:39.389Z,101889.32
2018-09-13T07:27:07.927Z,101891.56
2018-09-13T07:29:36.670Z,101891.80
2018-09-13T07:32:05.356Z,101894.63
2018-09-13T07:34:33.873Z,101893.06
2018-09-13T07:37:02.438Z,101898.92
2018-09-13T07:39:31.898Z,101890.42
2018-09-13T07:42:00.426Z,101898.13
2018-09-13T07:44:28.940Z,101894.38
2018-09-13T07:46:57.552Z,101896.73
2018-09-13T07:49:26.321Z,101901.80
2018-09-13T07:51:54.888Z,101901.95
2018-09-13T07:54:24.119Z,101901.64
2018-09-13T07:56:52.642Z,101902.86
2018-09-13T07:59:21.293Z,101903.80
2018-09-13T08:01:49.860Z,101905.89
2018-09-13T08:04:18.547Z,101904.97
2018-09-13T08:06:47.104Z,101908.92
2018-09-13T08:09:15.680Z,101905.59
2018-09-13T08:11:44.302Z,101905.89
2018-09-13T08:14:12.808Z,101903.36
2018-09-13T08:16:41.336Z,101903.88
2018-09-13T08:19:10.025Z,101904.94
2018-09-13T08:21:38.692Z,101908.63
2018-09-13T08:24:07.203Z,101912.25
2018-09-13T08:26:35.799Z,101918.45
2018-09-13T08:29:04.341Z,101913.14
2018-09-13T08:31:32.865Z,101915.09
2018-09-13T08:34:01.488Z,101913.92
2018-09-13T08:36:30.035Z,101916.92
2018-09-13T08:38:58.737Z,101918.51
2018-09-13T08:41:27.261Z,101922.22
2018-09-13T08:43:55.840Z,101923.08
2018-09-13T08:46:24.400Z,101922.26
2018-09-13T08:48:52.951Z,101919.80
2018-09-13T08:51:21.975Z,101914.81
2018-09-13T08:53:50.488Z,101919.88
2018-09-13T08:56:19.024Z,101916.25
2018-09-13T08:58:47.553Z,101914.50
2018-09-13T09:01:17.829Z,101914.36
2018-09-13T09:03:46.354Z,101910.58
2018-09-13T09:06:15.068Z,101909.74
2018-09-13T09:08:43.580Z,101920.91
2018-09-13T09:11:12.201Z,101915.62
2018-09-13T09:13:41.051Z,101906.61
2018-09-13T09:16:09.588Z,101911.30
2018-09-13T09:18:38.077Z,101901.39
2018-09-13T09:21:06.724Z,101895.27
2018-09-13T09:23:35.217Z,101894.72
2018-09-13T09:26:03.721Z,101895.16
2018-09-13T09:28:32.304Z,101891.45
2018-09-13T09:31:00.921Z,101887.83
2018-09-13T09:33:29.796Z,101893.73
2018-09-13T09:35:58.638Z,101893.50
2018-09-13T09:38:27.132Z,101902.13
2018-09-13T09:40:55.649Z,101901.25
2018-09-13T09:43:24.181Z,101899.58
2018-09-13T09:45:52.703Z,101906.05
2018-09-13T09:48:21.278Z,101907.19
2018-09-13T09:50:49.892Z,101909.42
2018-09-13T09:53:18.453Z,101903.09
2018-09-13T09:55:48.292Z,101898.94
2018-09-13T09:58:16.809Z,101905.32
2018-09-13T10:01:50.397Z,101908.61
2018-09-13T10:04:18.978Z,101900.89
2018-09-13T10:06:47.586Z,101894.41
2018-09-13T10:09:16.091Z,101900.68
2018-09-13T10:11:45.037Z,101899.40
2018-09-13T10:14:13.598Z,101899.62
2018-09-13T10:16:47.341Z,101892.44
2018-09-13T10:19:21.135Z,101893.05
2018-09-13T10:21:54.961Z,101891.67
2018-09-13T10:24:28.833Z,101890.66
2018-09-13T10:27:02.697Z,101886.48
2018-09-13T10:29:36.411Z,101884.97
2018-09-13T10:33:12.003Z,101887.44
2018-09-13T10:35:45.777Z,101885.75
2018-09-13T10:38:19.809Z,101882.38
2018-09-13T10:40:53.754Z,101881.91
2018-09-13T10:43:27.626Z,101873.63
2018-09-13T10:46:01.566Z,101875.59
2018-09-13T10:48:31.648Z,101874.13
2018-09-13T10:51:05.254Z,101867.92
2018-09-13T10:53:38.930Z,101865.66
2018-09-13T10:56:08.151Z,101870.41
2018-09-13T10:58:36.853Z,101869.42
2018-09-13T11:01:05.389Z,101861.30
2018-09-13T11:03:34.000Z,101868.70
2018-09-13T11:06:02.560Z,101855.35
2018-09-13T11:08:31.167Z,101855.02
2018-09-13T11:10:59.749Z,101858.45
2018-09-13T11:13:34.017Z,101855.31
2018-09-13T11:16:02.777Z,101858.06
2018-09-13T11:18:31.640Z,101854.62
2018-09-13T11:21:00.117Z,101848.81
2018-09-13T11:23:28.787Z,101848.48
2018-09-13T11:25:57.362Z,101852.30
2018-09-13T11:28:25.921Z,101844.56
2018-09-13T11:30:59.818Z,101837.77
2018-09-13T11:33:28.280Z,101837.53
2018-09-13T11:35:56.989Z,101841.06
2018-09-13T11:38:25.565Z,101839.20
2018-09-13T11:40:54.444Z,101836.98
2018-09-13T11:43:22.694Z,101831.35
2018-09-13T11:45:51.332Z,101826.84
2018-09-13T11:48:19.832Z,101829.22
2018-09-13T11:50:48.452Z,101828.73
2018-09-13T11:53:16.930Z,101830.81
2018-09-13T11:55:46.014Z,101832.42
2018-09-13T11:58:15.910Z,101830.35
2018-09-13T12:00:44.633Z,101835.08
2018-09-13T12:03:14.642Z,101835.14
2018-09-13T12:05:43.172Z,101823.92
2018-09-13T12:08:11.995Z,101832.50
2018-09-13T12:10:40.505Z,101824.98
2018-09-13T12:13:09.043Z,101828.19
2018-09-13T12:15:37.598Z,101822.72
2018-09-13T12:18:06.766Z,101819.42
2018-09-13T12:20:35.328Z,101815.28
2018-09-13T12:23:03.965Z,101815.53
2018-09-13T12:25:32.654Z,101810.20
2018-09-13T12:28:08.124Z,101806.14
2018-09-13T12:30:37.183Z,101801.52
2018-09-13T12:33:05.713Z,101803.36
2018-09-13T12:35:34.340Z,101810.17
2018-09-13T12:38:02.876Z,101807.05
2018-09-13T12:40:31.355Z,101794.19
2018-09-13T12:42:59.872Z,101808.31
2018-09-13T12:45:28.456Z,101808.13
2018-09-13T12:47:57.153Z,101801.23
2018-09-13T12:50:25.925Z,101804.56
2018-09-13T12:52:54.481Z,101796.58
2018-09-13T12:55:27.143Z,101798.42
2018-09-13T12:57:55.682Z,101795.26
2018-09-13T13:00:24.230Z,101791.88
2018-09-13T13:02:52.695Z,101794.86
2018-09-13T13:05:21.216Z,101789.63
2018-09-13T13:07:49.797Z,101787.02
2018-09-13T13:10:18.304Z,101785.06
2018-09-13T13:12:47.228Z,101783.16
2018-09-13T13:15:15.753Z,101785.13
2018-09-13T13:17:44.334Z,101779.44
2018-09-13T13:20:12.845Z,101775.67
2018-09-13T13:22:41.343Z,101768.48
2018-09-13T13:25:09.914Z,101771.66
2018-09-13T13:27:38.545Z,101769.41
2018-09-13T13:30:07.303Z,101763.14
2018-09-13T13:32:35.833Z,101765.63
2018-09-13T13:35:04.399Z,101766.75
2018-09-13T13:37:32.921Z,101769.09
2018-09-13T13:40:01.612Z,101765.98
2018-09-13T13:42:30.207Z,101770.97
2018-09-13T13:44:58.715Z,101770.47
2018-09-13T13:47:27.255Z,101769.57
2018-09-13T13:49:55.763Z,101764.19
2018-09-13T13:52:24.223Z,101759.11
2018-09-13T13:54:52.761Z,101759.69
2018-09-13T13:57:21.599Z,101759.70
2018-09-13T13:59:50.222Z,101755.67
2018-09-13T14:02:18.784Z,101747.38
2018-09-13T14:04:47.333Z,101762.44
2018-09-13T14:07:15.999Z,101757.05
2018-09-13T14:09:44.518Z,101757.91
2018-09-13T14:12:13.138Z,101750.91
2018-09-13T14:14:41.668Z,101746.44
2018-09-13T14:17:10.190Z,101745.00
2018-09-13T14:19:38.764Z,101741.23
2018-09-13T14:22:07.306Z,101737.83
2018-09-13T14:24:35.870Z,101731.05
2018-09-13T14:27:04.396Z,101734.80
2018-09-13T14:29:32.951Z,101736.92
2018-09-13T14:32:01.465Z,101746.31
2018-09-13T14:34:30.000Z,101742.13
2018-09-13T14:36:58.506Z,101739.64
2018-09-13T14:39:27.114Z,101737.29
2018-09-13T14:41:55.634Z,101738.13
2018-09-13T14:44:24.177Z,101732.27
2018-09-13T14:46:52.839Z,101738.20
2018-09-13T14:49:21.437Z,101732.18
2018-09-13T14:51:49.971Z,101734.50
2018-09-13T14:54:18.650Z,101727.40
2018-09-13T14:56:47.189Z,101736.39
2018-09-13T14:59:15.784Z,101734.66
2018-09-13T15:01:44.545Z,101741.67
2018-09-13T15:04:13.087Z,101737.95
2018-09-13T15:06:41.653Z,101733.87
2018-09-13T15:09:12.120Z,101725.27
2018-09-13T15:11:40.790Z,101727.77
2018-09-13T15:14:09.339Z,101728.11
2018-09-13T15:16:37.885Z,101726.41
2018-09-13T15:19:06.432Z,101716.87
2018-09-13T15:21:35.120Z,101710.41
2018-09-13T15:24:03.847Z,101707.07
2018-09-13T15:26:32.411Z,101702.14
2018-09-13T15:29:00.992Z,101705.27
2018-09-13T15:31:29.701Z,101713.38
2018-09-13T15:33:58.190Z,101717.16
2018-09-13T15:36:26.816Z,101708.65
2018-09-13T15:38:55.422Z,101707.73
2018-09-13T15:41:24.025Z,101706.27
2018-09-13T15:43:52.984Z,101706.44
2018-09-13T15:46:21.917Z,101705.13
2018-09-13T15:48:50.411Z,101712.06
2018-09-13T15:51:19.181Z,101707.41
2018-09-13T15:53:47.775Z,101710.82
2018-09-13T15:56:16.348Z,101713.62
2018-09-13T15:58:44.905Z,101709.05
2018-09-13T16:01:13.434Z,101706.02
2018-09-13T16:03:41.974Z,101714.36
2018-09-13T16:06:10.542Z,101707.17
2018-09-13T16:08:39.115Z,101707.97
2018-09-13T16:11:07.866Z,101708.58
2018-09-13T16:13:36.545Z,101716.53
2018-09-13T16:16:05.101Z,101716.19
2018-09-13T16:18:33.875Z,101712.63
2018-09-13T16:21:02.942Z,101715.48
2018-09-13T16:23:31.489Z,101708.70
2018-09-13T16:26:00.080Z,101713.00
2018-09-13T16:28:28.537Z,101709.95
2018-09-13T16:30:57.125Z,101710.45
2018-09-13T16:33:25.630Z,101707.52
2018-09-13T16:35:55.207Z,101707.75
2018-09-13T16:38:31.869Z,101704.03
2018-09-13T16:41:06.256Z,101703.72
2018-09-13T16:43:40.129Z,101701.34
2018-09-13T16:46:09.935Z,101702.07
2018-09-13T16:48:43.225Z,101704.89
2018-09-13T16:51:12.422Z,101707.61
2018-09-13T16:53:40.995Z,101715.05
2018-09-13T16:56:09.566Z,101701.25
2018-09-13T16:58:38.097Z,101704.35
2018-09-13T17:01:06.731Z,101708.41
2018-09-13T17:03:35.239Z,101713.85
2018-09-13T17:06:03.764Z,101712.58
2018-09-13T17:08:32.264Z,101706.30
2018-09-13T17:11:00.765Z,101716.14
2018-09-13T17:13:29.323Z,101714.05
2018-09-13T17:15:57.879Z,101715.44
2018-09-13T17:18:26.481Z,101716.98
2018-09-13T17:20:55.032Z,101720.27
2018-09-13T17:23:23.614Z,101714.16
2018-09-13T17:25:52.133Z,101717.56
2018-09-13T17:28:20.812Z,101717.83
2018-09-13T17:30:49.512Z,101721.30
2018-09-13T17:33:18.230Z,101724.87
2018-09-13T17:35:46.787Z,101723.67
2018-09-13T17:38:15.395Z,101728.90
2018-09-13T17:40:43.910Z,101722.70
2018-09-13T17:43:12.440Z,101721.72
2018-09-13T17:45:40.959Z,101728.17
2018-09-13T17:48:09.555Z,101722.33
2018-09-13T17:50:38.042Z,101726.88
2018-09-13T17:53:06.633Z,101738.41
2018-09-13T17:55:35.650Z,101727.63
2018-09-13T17:58:04.805Z,101735.59
2018-09-13T18:00:33.322Z,101738.25
2018-09-13T18:03:01.922Z,101740.00
2018-09-13T18:05:30.577Z,101741.84
2018-09-13T18:07:59.300Z,101743.56
2018-09-13T18:10:28.453Z,101749.08
2018-09-13T18:12:57.186Z,101745.73
2018-09-13T18:15:25.699Z,101753.45
2018-09-13T18:17:54.208Z,101742.73
2018-09-13T18:20:22.743Z,101746.95
2018-09-13T18:22:51.701Z,101745.77
2018-09-13T18:25:20.184Z,101749.75
2018-09-13T18:27:48.720Z,101749.45
2018-09-13T18:30:17.347Z,101748.04
2018-09-13T18:32:46.082Z,101751.78
2018-09-13T18:35:14.638Z,101758.13
2018-09-13T18:37:43.325Z,101758.16
2018-09-13T18:40:11.853Z,101762.25
2018-09-13T18:42:40.442Z,101759.30
2018-09-13T18:45:09.030Z,101763.84
2018-09-13T18:47:37.555Z,101762.70
2018-09-13T18:50:06.152Z,101762.31
2018-09-13T18:52:35.492Z,101776.59
2018-09-13T18:55:04.487Z,101783.41
2018-09-13T18:57:33.156Z,101782.98
2018-09-13T19:00:01.759Z,101790.14
2018-09-13T19:02:30.405Z,101791.80
2018-09-13T19:05:00.107Z,101791.34
2018-09-13T19:07:28.752Z,101796.47
2018-09-13T19:09:57.281Z,101797.88
2018-09-13T19:12:27.081Z,101801.01
2018-09-13T19:14:55.817Z,101803.05
2018-09-13T19:17:24.580Z,101801.41
2018-09-13T19:19:53.128Z,101807.09
2018-09-13T19:22:21.885Z,101803.80
2018-09-13T19:24:50.697Z,101808.94
2018-09-13T19:27:19.246Z,101810.22
2018-09-13T19:29:47.902Z,101811.67
2018-09-13T19:32:16.841Z,101813.34
2018-09-13T19:34:45.565Z,101809.34
2018-09-13T19:37:14.361Z,101811.62
2018-09-13T19:39:43.526Z,101811.23
2018-09-13T19:42:13.310Z,101813.58
2018-09-13T19:44:41.846Z,101816.94
2018-09-13T19:47:10.834Z,101816.94
2018-09-13T19:49:39.506Z,101813.31
2018-09-13T19:52:08.181Z,101824.86
2018-09-13T19:54:37.182Z,101819.98
2018-09-13T19:57:06.652Z,101820.64
2018-09-13T19:59:35.317Z,101814.59
2018-09-13T20:02:03.882Z,101818.22
2018-09-13T20:04:32.485Z,101826.88
2018-09-13T20:07:01.001Z,101829.38
2018-09-13T20:09:29.789Z,101827.92
2018-09-13T20:11:58.500Z,101828.81
2018-09-13T20:14:27.044Z,101829.79
2018-09-13T20:16:55.681Z,101827.83
2018-09-13T20:19:24.182Z,101823.20
2018-09-13T20:21:52.652Z,101827.27
2018-09-13T20:24:21.990Z,101831.11
2018-09-13T20:26:50.500Z,101823.92
2018-09-13T20:29:19.978Z,101820.41
2018-09-13T20:31:48.994Z,101819.56
2018-09-13T20:34:17.477Z,101820.45
2018-09-13T20:36:46.002Z,101814.41
2018-09-13T20:39:14.553Z,101824.80
2018-09-13T20:41:43.104Z,101828.83
2018-09-13T20:44:11.611Z,101827.48
2018-09-13T20:46:40.108Z,101836.49
2018-09-13T20:49:08.997Z,101831.44
2018-09-13T20:51:37.500Z,101827.97
2018-09-13T20:54:06.369Z,101829.17
2018-09-13T20:56:34.897Z,101829.78
2018-09-13T20:59:03.465Z,101833.24
2018-09-13T21:01:32.132Z,101843.94
2018-09-13T21:04:01.633Z,101839.59
2018-09-13T21:06:30.127Z,101836.59
2018-09-13T21:08:58.613Z,101837.34
2018-09-13T21:11:27.147Z,101839.19
2018-09-13T21:13:58.216Z,101842.56
2018-09-13T21:16:27.153Z,101839.33
2018-09-13T21:18:55.660Z,101838.73
2018-09-13T21:21:24.163Z,101834.98
2018-09-13T21:23:52.775Z,101841.21
2018-09-13T21:26:21.480Z,101839.15
2018-09-13T21:28:50.079Z,101853.87
2018-09-13T21:31:18.780Z,101851.77
2018-09-13T21:33:47.735Z,101859.06
2018-09-13T21:36:16.238Z,101856.58
2018-09-13T21:38:44.732Z,101857.00
2018-09-13T21:41:13.389Z,101854.51
2018-09-13T21:43:41.956Z,101853.06
2018-09-13T21:46:10.463Z,101854.09
2018-09-13T21:48:39.004Z,101853.56
2018-09-13T21:51:10.811Z,101846.17
2018-09-13T21:53:39.601Z,101849.41
2018-09-13T21:56:08.262Z,101853.97
2018-09-13T21:58:36.767Z,101846.89
2018-09-13T22:01:05.592Z,101846.58
2018-09-13T22:03:34.345Z,101846.87
2018-09-13T22:06:02.865Z,101850.91
2018-09-13T22:08:31.386Z,101852.98
2018-09-13T22:11:00.032Z,101849.66
2018-09-13T22:13:33.447Z,101851.91
2018-09-13T22:16:03.044Z,101855.53
2018-09-13T22:18:32.074Z,101855.08
2018-09-13T22:21:00.588Z,101861.49
2018-09-13T22:23:29.167Z,101854.70
2018-09-13T22:25:57.868Z,101855.02
2018-09-13T22:28:26.426Z,101857.84
2018-09-13T22:30:54.997Z,101856.35
2018-09-13T22:33:24.096Z,101854.97
2018-09-13T22:35:52.600Z,101860.78
2018-09-13T22:38:22.469Z,101854.94
2018-09-13T22:40:51.009Z,101851.06
2018-09-13T22:43:19.851Z,101857.68
2018-09-13T22:45:51.719Z,101847.81
2018-09-13T22:48:20.216Z,101857.13
2018-09-13T22:50:48.712Z,101855.48
2018-09-13T22:53:20.736Z,101854.50
2018-09-13T22:55:49.242Z,101854.23
2018-09-13T22:58:17.734Z,101855.01
2018-09-13T23:00:46.369Z,101846.49
2018-09-13T23:03:15.159Z,101845.16
2018-09-13T23:05:43.674Z,101851.04
2018-09-13T23:08:12.225Z,101846.02
2018-09-13T23:10:40.874Z,101852.00
2018-09-13T23:13:09.449Z,101850.42
2018-09-13T23:15:38.309Z,101856.89
2018-09-13T23:18:06.802Z,101857.80
2018-09-13T23:20:36.502Z,101853.80
2018-09-13T23:23:05.058Z,101855.98
2018-09-13T23:25:33.521Z,101855.66
2018-09-13T23:28:02.037Z,101855.03
2018-09-13T23:30:30.759Z,101860.44
2018-09-13T23:32:59.261Z,101857.89
2018-09-13T23:35:27.765Z,101860.83
2018-09-13T23:37:56.246Z,101860.33
2018-09-13T23:40:25.253Z,101859.01
2018-09-13T23:42:53.689Z,101857.11
2018-09-13T23:45:22.180Z,101862.36
2018-09-13T23:47:50.732Z,101856.44
2018-09-13T23:50:19.241Z,101854.91
2018-09-13T23:52:48.011Z,101857.27
2018-09-13T23:55:16.714Z,101862.37
2018-09-13T23:57:45.363Z,101856.15
